BAW924 EGLL-EDDL
Flight info
| Callsign | BAW924 |
|---|---|
| Flight time | 0h 52m |
| Altitude | 33000 |
| Route | BPK Q295 BRAIN M197 REDFA DCT TACHA DCT PAM P62 PISAP PISAP1A |
| Aircraft | A319/M-SDE3FGHIRWY/LB1 |
Departure
| Time | 2026-05-04 20:12 |
|---|---|
| Airport | London Heathrow Airport (EGLL) |
Arrival
| Time | 2026-05-04 21:05 |
|---|---|
| Airport | Düsseldorf Airport (EDDL) |
| Time | Latitude | Longitude | Altitude | Speed | Heading |
|---|---|---|---|---|---|
| 2026-05-04 19:45 | 51.47271 | -0.48588 | 89 ft | 0 kts | 269° |
| 2026-05-04 20:04 | 51.47271 | -0.48587 | 86 ft | 0 kts | 269° |
| 2026-05-04 20:04 | 51.47271 | -0.48566 | 89 ft | 3 kts | 269° |
| 2026-05-04 20:05 | 51.47271 | -0.48533 | 89 ft | 3 kts | 269° |
| 2026-05-04 20:05 | 51.47272 | -0.48503 | 89 ft | 3 kts | 253° |
| 2026-05-04 20:05 | 51.47280 | -0.48479 | 91 ft | 3 kts | 206° |
| 2026-05-04 20:05 | 51.47293 | -0.48473 | 90 ft | 1 kts | 179° |
| 2026-05-04 20:06 | 51.47306 | -0.48473 | 87 ft | 2 kts | 179° |
| 2026-05-04 20:06 | 51.47310 | -0.48473 | 88 ft | 0 kts | 179° |
| 2026-05-04 20:08 | 51.47299 | -0.48473 | 88 ft | 5 kts | 180° |
| 2026-05-04 20:08 | 51.47253 | -0.48473 | 86 ft | 8 kts | 180° |
| 2026-05-04 20:09 | 51.47189 | -0.48472 | 86 ft | 10 kts | 180° |
| 2026-05-04 20:09 | 51.47115 | -0.48472 | 86 ft | 12 kts | 180° |
| 2026-05-04 20:09 | 51.47027 | -0.48471 | 86 ft | 13 kts | 179° |
| 2026-05-04 20:09 | 51.46930 | -0.48470 | 86 ft | 14 kts | 179° |
| 2026-05-04 20:10 | 51.46837 | -0.48469 | 86 ft | 11 kts | 180° |
| 2026-05-04 20:10 | 51.46753 | -0.48468 | 86 ft | 13 kts | 180° |
| 2026-05-04 20:10 | 51.46652 | -0.48467 | 86 ft | 15 kts | 180° |
| 2026-05-04 20:10 | 51.46545 | -0.48466 | 87 ft | 16 kts | 180° |
| 2026-05-04 20:11 | 51.46478 | -0.48434 | 89 ft | 8 kts | 124° |
| 2026-05-04 20:11 | 51.46478 | -0.48367 | 87 ft | 0 kts | 87° |
| 2026-05-04 20:11 | 51.46479 | -0.48321 | 88 ft | 17 kts | 88° |
| 2026-05-04 20:12 | 51.46481 | -0.47780 | 87 ft | 80 kts | 89° |
| 2026-05-04 20:12 | 51.46486 | -0.46574 | 91 ft | 135 kts | 89° |
| 2026-05-04 20:12 | 51.46498 | -0.44888 | 362 ft | 158 kts | 88° |
| 2026-05-04 20:12 | 51.46500 | -0.43134 | 1076 ft | 154 kts | 86° |
| 2026-05-04 20:13 | 51.46626 | -0.41418 | 1555 ft | 164 kts | 69° |
| 2026-05-04 20:13 | 51.47253 | -0.39771 | 1821 ft | 185 kts | 49° |
| 2026-05-04 20:13 | 51.48150 | -0.38086 | 2091 ft | 211 kts | 50° |
| 2026-05-04 20:13 | 51.49150 | -0.36183 | 2436 ft | 235 kts | 50° |
| 2026-05-04 20:14 | 51.50231 | -0.34115 | 3008 ft | 247 kts | 50° |
| 2026-05-04 20:14 | 51.51347 | -0.31971 | 3981 ft | 253 kts | 50° |
| 2026-05-04 20:14 | 51.52364 | -0.29610 | 4944 ft | 263 kts | 65° |
| 2026-05-04 20:14 | 51.52989 | -0.26797 | 5688 ft | 272 kts | 71° |
| 2026-05-04 20:15 | 51.53662 | -0.23948 | 5939 ft | 273 kts | 62° |
| 2026-05-04 20:15 | 51.54795 | -0.21520 | 6002 ft | 273 kts | 42° |
| 2026-05-04 20:15 | 51.56372 | -0.19850 | 6008 ft | 272 kts | 23° |
| 2026-05-04 20:15 | 51.58119 | -0.18689 | 6032 ft | 273 kts | 21° |
| 2026-05-04 20:16 | 51.59908 | -0.17664 | 6038 ft | 273 kts | 14° |
| 2026-05-04 20:16 | 51.61734 | -0.16813 | 6036 ft | 273 kts | 14° |
| 2026-05-04 20:16 | 51.63559 | -0.15960 | 6036 ft | 273 kts | 15° |
| 2026-05-04 20:16 | 51.65379 | -0.15110 | 6038 ft | 273 kts | 15° |
| 2026-05-04 20:17 | 51.67209 | -0.14259 | 6118 ft | 277 kts | 14° |
| 2026-05-04 20:17 | 51.69064 | -0.13403 | 7021 ft | 278 kts | 14° |
| 2026-05-04 20:17 | 51.70938 | -0.12537 | 7971 ft | 282 kts | 14° |
| 2026-05-04 20:17 | 51.72792 | -0.11421 | 8888 ft | 289 kts | 29° |
| 2026-05-04 20:18 | 51.74333 | -0.09298 | 9796 ft | 296 kts | 51° |
| 2026-05-04 20:18 | 51.75289 | -0.06343 | 10661 ft | 300 kts | 74° |
| 2026-05-04 20:18 | 51.75669 | -0.02942 | 11170 ft | 319 kts | 82° |
| 2026-05-04 20:18 | 51.75974 | 0.00683 | 11482 ft | 340 kts | 83° |
| 2026-05-04 20:19 | 51.76278 | 0.04513 | 12163 ft | 347 kts | 83° |
| 2026-05-04 20:19 | 51.76583 | 0.08403 | 12967 ft | 350 kts | 83° |
| 2026-05-04 20:19 | 51.76889 | 0.12324 | 13782 ft | 353 kts | 83° |
| 2026-05-04 20:19 | 51.77204 | 0.16284 | 14483 ft | 357 kts | 82° |
| 2026-05-04 20:20 | 51.77529 | 0.20281 | 15162 ft | 361 kts | 83° |
| 2026-05-04 20:20 | 51.77860 | 0.24318 | 15828 ft | 365 kts | 83° |
| 2026-05-04 20:20 | 51.78295 | 0.28379 | 16475 ft | 370 kts | 77° |
| 2026-05-04 20:20 | 51.78906 | 0.32438 | 17134 ft | 374 kts | 76° |
| 2026-05-04 20:21 | 51.79335 | 0.35148 | 17574 ft | 377 kts | 76° |
| 2026-05-04 20:21 | 51.80014 | 0.39323 | 18227 ft | 382 kts | 76° |
| 2026-05-04 20:21 | 51.81381 | 0.47652 | 19365 ft | 391 kts | 76° |
| 2026-05-04 20:22 | 51.82072 | 0.51928 | 19931 ft | 395 kts | 76° |
| 2026-05-04 20:22 | 51.82760 | 0.56251 | 20531 ft | 399 kts | 77° |
| 2026-05-04 20:22 | 51.83449 | 0.60613 | 21130 ft | 402 kts | 77° |
| 2026-05-04 20:22 | 51.84142 | 0.65010 | 21711 ft | 405 kts | 77° |
| 2026-05-04 20:23 | 51.84847 | 0.69505 | 22290 ft | 409 kts | 77° |
| 2026-05-04 20:23 | 51.85536 | 0.73921 | 22827 ft | 412 kts | 77° |
| 2026-05-04 20:23 | 51.86241 | 0.78435 | 23382 ft | 415 kts | 77° |
| 2026-05-04 20:23 | 51.86952 | 0.82984 | 23867 ft | 419 kts | 77° |
| 2026-05-04 20:24 | 51.87666 | 0.87574 | 24320 ft | 422 kts | 77° |
| 2026-05-04 20:24 | 51.88382 | 0.92196 | 24765 ft | 425 kts | 77° |
| 2026-05-04 20:24 | 51.89103 | 0.96858 | 25206 ft | 428 kts | 77° |
| 2026-05-04 20:24 | 51.89829 | 1.01559 | 25596 ft | 432 kts | 77° |
| 2026-05-04 20:25 | 51.90558 | 1.06304 | 26001 ft | 436 kts | 77° |
| 2026-05-04 20:25 | 51.91289 | 1.11082 | 26434 ft | 439 kts | 77° |
| 2026-05-04 20:25 | 51.92026 | 1.15895 | 26867 ft | 442 kts | 77° |
| 2026-05-04 20:25 | 51.92763 | 1.20741 | 27299 ft | 445 kts | 78° |
| 2026-05-04 20:26 | 51.93505 | 1.25628 | 27732 ft | 448 kts | 78° |
| 2026-05-04 20:26 | 51.94250 | 1.30547 | 28153 ft | 450 kts | 78° |
| 2026-05-04 20:26 | 51.94998 | 1.35502 | 28569 ft | 453 kts | 78° |
| 2026-05-04 20:26 | 51.95741 | 1.40418 | 28971 ft | 456 kts | 78° |
| 2026-05-04 20:27 | 51.96494 | 1.45423 | 29365 ft | 459 kts | 78° |
| 2026-05-04 20:27 | 51.97252 | 1.50469 | 29738 ft | 462 kts | 78° |
| 2026-05-04 20:27 | 51.98010 | 1.55546 | 30108 ft | 465 kts | 78° |
| 2026-05-04 20:27 | 51.98768 | 1.60659 | 30430 ft | 467 kts | 78° |
| 2026-05-04 20:28 | 51.99527 | 1.65801 | 30756 ft | 469 kts | 78° |
| 2026-05-04 20:28 | 52.00286 | 1.70960 | 31071 ft | 471 kts | 78° |
| 2026-05-04 20:28 | 52.01046 | 1.76144 | 31414 ft | 472 kts | 78° |
| 2026-05-04 20:28 | 52.01804 | 1.81329 | 31869 ft | 471 kts | 78° |
| 2026-05-04 20:29 | 52.02559 | 1.86488 | 32343 ft | 469 kts | 78° |
| 2026-05-04 20:29 | 52.03313 | 1.91638 | 32806 ft | 468 kts | 78° |
| 2026-05-04 20:29 | 52.04064 | 1.96787 | 33005 ft | 468 kts | 78° |
| 2026-05-04 20:29 | 52.04806 | 2.01883 | 33048 ft | 460 kts | 78° |
| 2026-05-04 20:30 | 52.06255 | 2.11926 | 33044 ft | 455 kts | 78° |
| 2026-05-04 20:30 | 52.07683 | 2.21931 | 33047 ft | 454 kts | 78° |
| 2026-05-04 20:31 | 52.09100 | 2.31943 | 33047 ft | 454 kts | 78° |
| 2026-05-04 20:31 | 52.10510 | 2.41952 | 33041 ft | 454 kts | 78° |
| 2026-05-04 20:32 | 52.11959 | 2.51919 | 33029 ft | 455 kts | 77° |
| 2026-05-04 20:32 | 52.13782 | 2.61780 | 33027 ft | 456 kts | 73° |
| 2026-05-04 20:33 | 52.15773 | 2.71580 | 33037 ft | 456 kts | 73° |
| 2026-05-04 20:33 | 52.17696 | 2.81410 | 33036 ft | 456 kts | 74° |
| 2026-05-04 20:34 | 52.19544 | 2.91287 | 33033 ft | 455 kts | 75° |
| 2026-05-04 20:34 | 52.21368 | 3.01178 | 33020 ft | 456 kts | 75° |
| 2026-05-04 20:35 | 52.23201 | 3.11075 | 33022 ft | 456 kts | 75° |
| 2026-05-04 20:35 | 52.25029 | 3.20987 | 33019 ft | 457 kts | 76° |
| 2026-05-04 20:36 | 52.25965 | 3.31179 | 33014 ft | 454 kts | 88° |
| 2026-05-04 20:36 | 52.26468 | 3.41453 | 33009 ft | 455 kts | 88° |
| 2026-05-04 20:37 | 52.26977 | 3.51751 | 33003 ft | 455 kts | 88° |
| 2026-05-04 20:37 | 52.27465 | 3.62047 | 33014 ft | 455 kts | 88° |
| 2026-05-04 20:38 | 52.27945 | 3.72348 | 33019 ft | 455 kts | 88° |
| 2026-05-04 20:38 | 52.28420 | 3.82639 | 33022 ft | 455 kts | 88° |
| 2026-05-04 20:39 | 52.28884 | 3.92880 | 33020 ft | 455 kts | 88° |
| 2026-05-04 20:39 | 52.29341 | 4.03181 | 33019 ft | 454 kts | 88° |
| 2026-05-04 20:40 | 52.29784 | 4.13463 | 33027 ft | 454 kts | 88° |
| 2026-05-04 20:40 | 52.30214 | 4.23738 | 33021 ft | 453 kts | 89° |
| 2026-05-04 20:41 | 52.30639 | 4.34017 | 33026 ft | 453 kts | 89° |
| 2026-05-04 20:41 | 52.31060 | 4.44294 | 33005 ft | 453 kts | 89° |
| 2026-05-04 20:42 | 52.31463 | 4.54575 | 33009 ft | 453 kts | 89° |
| 2026-05-04 20:42 | 52.31859 | 4.64849 | 32997 ft | 453 kts | 89° |
| 2026-05-04 20:43 | 52.32248 | 4.75110 | 33006 ft | 453 kts | 89° |
| 2026-05-04 20:43 | 52.32627 | 4.85318 | 33006 ft | 452 kts | 89° |
| 2026-05-04 20:44 | 52.32993 | 4.95579 | 32994 ft | 452 kts | 90° |
| 2026-05-04 20:44 | 52.33109 | 5.05996 | 33001 ft | 460 kts | 99° |
| 2026-05-04 20:45 | 52.31519 | 5.16033 | 32999 ft | 454 kts | 117° |
| 2026-05-04 20:45 | 52.28863 | 5.25301 | 32992 ft | 453 kts | 119° |
| 2026-05-04 20:46 | 52.26181 | 5.34609 | 33001 ft | 453 kts | 118° |
| 2026-05-04 20:46 | 52.24841 | 5.39257 | 32545 ft | 453 kts | 118° |
| 2026-05-04 20:46 | 52.23481 | 5.43955 | 31379 ft | 462 kts | 118° |
| 2026-05-04 20:47 | 52.22098 | 5.48719 | 30333 ft | 467 kts | 118° |
| 2026-05-04 20:47 | 52.20704 | 5.53510 | 29438 ft | 466 kts | 118° |
| 2026-05-04 20:47 | 52.19328 | 5.58245 | 28687 ft | 460 kts | 117° |
| 2026-05-04 20:47 | 52.17965 | 5.62931 | 27943 ft | 455 kts | 117° |
| 2026-05-04 20:48 | 52.16612 | 5.67559 | 27201 ft | 450 kts | 117° |
| 2026-05-04 20:48 | 52.15268 | 5.72135 | 26463 ft | 446 kts | 117° |
| 2026-05-04 20:48 | 52.13935 | 5.76665 | 25742 ft | 441 kts | 117° |
| 2026-05-04 20:48 | 52.12619 | 5.81149 | 25106 ft | 435 kts | 117° |
| 2026-05-04 20:49 | 52.11323 | 5.85573 | 24471 ft | 429 kts | 117° |
| 2026-05-04 20:49 | 52.10062 | 5.89870 | 23841 ft | 424 kts | 117° |
| 2026-05-04 20:49 | 52.08792 | 5.94177 | 23124 ft | 420 kts | 117° |
| 2026-05-04 20:49 | 52.07533 | 5.98437 | 22357 ft | 416 kts | 117° |
| 2026-05-04 20:50 | 52.06283 | 6.02653 | 21610 ft | 412 kts | 117° |
| 2026-05-04 20:50 | 52.05045 | 6.06822 | 20892 ft | 408 kts | 117° |
| 2026-05-04 20:50 | 52.03812 | 6.10958 | 20212 ft | 405 kts | 117° |
| 2026-05-04 20:50 | 52.02594 | 6.15055 | 19536 ft | 401 kts | 116° |
| 2026-05-04 20:51 | 52.01387 | 6.19115 | 18925 ft | 398 kts | 116° |
| 2026-05-04 20:51 | 52.00185 | 6.23145 | 18317 ft | 395 kts | 116° |
| 2026-05-04 20:51 | 51.98985 | 6.27137 | 17718 ft | 391 kts | 116° |
| 2026-05-04 20:51 | 51.97816 | 6.31019 | 17548 ft | 374 kts | 115° |
| 2026-05-04 20:52 | 51.96687 | 6.34758 | 17082 ft | 366 kts | 116° |
| 2026-05-04 20:52 | 51.95470 | 6.38351 | 16534 ft | 361 kts | 126° |
| 2026-05-04 20:52 | 51.93734 | 6.41226 | 16158 ft | 357 kts | 142° |
| 2026-05-04 20:52 | 51.91783 | 6.43727 | 15905 ft | 358 kts | 142° |
| 2026-05-04 20:53 | 51.89832 | 6.46217 | 15647 ft | 357 kts | 142° |
| 2026-05-04 20:53 | 51.87884 | 6.48691 | 15401 ft | 355 kts | 142° |
| 2026-05-04 20:53 | 51.85941 | 6.51152 | 14995 ft | 354 kts | 142° |
| 2026-05-04 20:53 | 51.84010 | 6.53595 | 14087 ft | 352 kts | 141° |
| 2026-05-04 20:54 | 51.82089 | 6.56024 | 13133 ft | 348 kts | 141° |
| 2026-05-04 20:54 | 51.80194 | 6.58414 | 12269 ft | 342 kts | 141° |
| 2026-05-04 20:54 | 51.78345 | 6.60744 | 11508 ft | 334 kts | 141° |
| 2026-05-04 20:54 | 51.76520 | 6.63042 | 10796 ft | 333 kts | 141° |
| 2026-05-04 20:55 | 51.74700 | 6.65335 | 10461 ft | 331 kts | 141° |
| 2026-05-04 20:55 | 51.72909 | 6.67590 | 10250 ft | 320 kts | 141° |
| 2026-05-04 20:55 | 51.71222 | 6.69751 | 10131 ft | 306 kts | 137° |
| 2026-05-04 20:55 | 51.69767 | 6.72159 | 10008 ft | 294 kts | 131° |
| 2026-05-04 20:56 | 51.68407 | 6.74553 | 9794 ft | 288 kts | 131° |
| 2026-05-04 20:56 | 51.67063 | 6.76927 | 9506 ft | 285 kts | 131° |
| 2026-05-04 20:56 | 51.65739 | 6.79287 | 9225 ft | 283 kts | 133° |
| 2026-05-04 20:56 | 51.64244 | 6.81293 | 8961 ft | 279 kts | 147° |
| 2026-05-04 20:57 | 51.62594 | 6.83039 | 8405 ft | 288 kts | 147° |
| 2026-05-04 20:57 | 51.60942 | 6.84785 | 8231 ft | 281 kts | 147° |
| 2026-05-04 20:57 | 51.59301 | 6.86522 | 7660 ft | 284 kts | 148° |
| 2026-05-04 20:57 | 51.57653 | 6.88268 | 7031 ft | 284 kts | 148° |
| 2026-05-04 20:58 | 51.56005 | 6.90015 | 6418 ft | 284 kts | 148° |
| 2026-05-04 20:58 | 51.54358 | 6.91759 | 5772 ft | 283 kts | 148° |
| 2026-05-04 20:58 | 51.52717 | 6.93498 | 5135 ft | 282 kts | 148° |
| 2026-05-04 20:58 | 51.51098 | 6.95217 | 4783 ft | 272 kts | 148° |
| 2026-05-04 20:59 | 51.49549 | 6.96820 | 4550 ft | 258 kts | 153° |
| 2026-05-04 20:59 | 51.47902 | 6.97826 | 4184 ft | 250 kts | 169° |
| 2026-05-04 20:59 | 51.46220 | 6.98401 | 3808 ft | 245 kts | 163° |
| 2026-05-04 20:59 | 51.44768 | 6.99715 | 3435 ft | 244 kts | 146° |
| 2026-05-04 21:00 | 51.43349 | 7.01242 | 3062 ft | 246 kts | 156° |
| 2026-05-04 21:00 | 51.41722 | 7.01664 | 3000 ft | 233 kts | 189° |
| 2026-05-04 21:00 | 51.40226 | 7.00893 | 2998 ft | 220 kts | 207° |
| 2026-05-04 21:00 | 51.39221 | 6.99217 | 3008 ft | 203 kts | 239° |
| 2026-05-04 21:01 | 51.38479 | 6.97390 | 2999 ft | 189 kts | 233° |
| 2026-05-04 21:01 | 51.37697 | 6.95718 | 2820 ft | 186 kts | 231° |
| 2026-05-04 21:01 | 51.36918 | 6.94073 | 2597 ft | 185 kts | 232° |
| 2026-05-04 21:01 | 51.36145 | 6.92439 | 2358 ft | 184 kts | 232° |
| 2026-05-04 21:02 | 51.35374 | 6.90811 | 2153 ft | 180 kts | 232° |
| 2026-05-04 21:02 | 51.34631 | 6.89242 | 1866 ft | 173 kts | 232° |
| 2026-05-04 21:02 | 51.33945 | 6.87795 | 1646 ft | 152 kts | 232° |
| 2026-05-04 21:02 | 51.33343 | 6.86524 | 1445 ft | 135 kts | 232° |
| 2026-05-04 21:03 | 51.32787 | 6.85353 | 1273 ft | 129 kts | 231° |
| 2026-05-04 21:03 | 51.32248 | 6.84218 | 1103 ft | 128 kts | 231° |
| 2026-05-04 21:03 | 51.31712 | 6.83090 | 934 ft | 127 kts | 231° |
| 2026-05-04 21:03 | 51.31176 | 6.81962 | 766 ft | 127 kts | 231° |
| 2026-05-04 21:04 | 51.30644 | 6.80842 | 594 ft | 126 kts | 231° |
| 2026-05-04 21:04 | 51.30115 | 6.79716 | 424 ft | 127 kts | 232° |
| 2026-05-04 21:04 | 51.29585 | 6.78598 | 216 ft | 126 kts | 232° |
| 2026-05-04 21:04 | 51.29093 | 6.77568 | 127 ft | 114 kts | 232° |
| 2026-05-04 21:05 | 51.28720 | 6.76791 | 128 ft | 66 kts | 233° |
| 2026-05-04 21:05 | 51.28512 | 6.76347 | 127 ft | 44 kts | 233° |
| 2026-05-04 21:05 | 51.28330 | 6.76040 | 126 ft | 36 kts | 209° |
| 2026-05-04 21:05 | 51.28185 | 6.75935 | 125 ft | 16 kts | 204° |
| 2026-05-04 21:06 | 51.28101 | 6.75877 | 128 ft | 12 kts | 202° |
| 2026-05-04 21:06 | 51.28042 | 6.75837 | 126 ft | 9 kts | 203° |
| 2026-05-04 21:06 | 51.27974 | 6.75817 | 126 ft | 10 kts | 182° |
| 2026-05-04 21:06 | 51.27896 | 6.75812 | 129 ft | 13 kts | 178° |
| 2026-05-04 21:07 | 51.27844 | 6.75896 | 129 ft | 11 kts | 92° |
| 2026-05-04 21:07 | 51.27841 | 6.76023 | 129 ft | 10 kts | 92° |
| 2026-05-04 21:07 | 51.27840 | 6.76135 | 129 ft | 8 kts | 90° |
| 2026-05-04 21:07 | 51.27837 | 6.76244 | 129 ft | 10 kts | 97° |
| 2026-05-04 21:08 | 51.27828 | 6.76313 | 125 ft | 7 kts | 122° |
| 2026-05-04 21:08 | 51.27791 | 6.76334 | 128 ft | 4 kts | 162° |
| 2026-05-04 21:08 | 51.27784 | 6.76337 | 124 ft | 0 kts | 161° |